createdAt,value
2018-10-16T00:00:49.986Z,9.50
2018-10-16T00:03:18.312Z,10.20
2018-10-16T00:05:46.559Z,10.30
2018-10-16T00:08:14.838Z,9.40
2018-10-16T00:10:45.915Z,10.00
2018-10-16T00:13:14.367Z,9.90
2018-10-16T00:15:42.672Z,10.60
2018-10-16T00:18:12.091Z,10.30
2018-10-16T00:20:40.962Z,10.45
2018-10-16T00:23:10.140Z,9.70
2018-10-16T00:25:38.446Z,10.93
2018-10-16T00:28:06.970Z,10.75
2018-10-16T00:30:35.235Z,10.58
2018-10-16T00:33:03.582Z,10.80
2018-10-16T00:35:31.890Z,10.30
2018-10-16T00:38:00.222Z,10.50
2018-10-16T00:40:28.511Z,11.18
2018-10-16T00:42:56.791Z,10.23
2018-10-16T00:45:25.091Z,10.75
2018-10-16T00:47:53.366Z,11.38
2018-10-16T00:50:21.698Z,10.63
2018-10-16T00:52:49.986Z,10.70
2018-10-16T00:55:18.293Z,10.90
2018-10-16T00:57:46.591Z,11.20
2018-10-16T01:00:14.876Z,11.22
2018-10-16T01:02:43.906Z,10.63
2018-10-16T01:05:13.004Z,11.30
2018-10-16T01:07:41.822Z,12.05
2018-10-16T01:10:11.093Z,12.15
2018-10-16T01:12:40.003Z,12.60
2018-10-16T01:15:09.523Z,11.50
2018-10-16T01:17:38.286Z,12.30
2018-10-16T01:20:08.699Z,12.30
2018-10-16T01:22:37.211Z,11.20
2018-10-16T01:25:06.503Z,11.60
2018-10-16T01:27:34.819Z,11.28
2018-10-16T01:30:03.143Z,11.22
2018-10-16T01:32:31.426Z,10.97
2018-10-16T01:34:59.777Z,11.33
2018-10-16T01:37:28.098Z,10.72
2018-10-16T01:39:56.366Z,10.70
2018-10-16T01:42:24.679Z,11.05
2018-10-16T01:44:52.983Z,11.10
2018-10-16T01:47:21.488Z,10.23
2018-10-16T01:49:49.799Z,11.03
2018-10-16T01:52:18.095Z,11.33
2018-10-16T01:54:46.331Z,10.90
2018-10-16T01:57:14.634Z,11.10
2018-10-16T01:59:42.954Z,10.93
2018-10-16T02:02:11.324Z,10.25
2018-10-16T02:04:39.651Z,10.90
2018-10-16T02:07:07.931Z,11.25
2018-10-16T02:09:36.223Z,11.22
2018-10-16T02:12:04.522Z,11.03
2018-10-16T02:14:32.901Z,10.38
2018-10-16T02:17:01.236Z,10.98
2018-10-16T02:19:29.492Z,11.10
2018-10-16T02:21:57.762Z,11.20
2018-10-16T02:24:26.043Z,11.50
2018-10-16T02:26:54.330Z,11.00
2018-10-16T02:29:22.611Z,11.30
2018-10-16T02:31:50.891Z,11.25
2018-10-16T02:34:22.071Z,10.72
2018-10-16T02:36:50.355Z,11.38
2018-10-16T02:39:18.681Z,11.38
2018-10-16T02:41:46.967Z,11.25
2018-10-16T02:44:15.250Z,11.40
2018-10-16T02:46:44.760Z,11.48
2018-10-16T02:49:13.119Z,11.55
2018-10-16T02:51:41.422Z,10.78
2018-10-16T02:54:09.705Z,11.05
2018-10-16T02:56:37.999Z,11.20
2018-10-16T02:59:06.296Z,11.53
2018-10-16T03:01:34.555Z,12.10
2018-10-16T03:04:02.847Z,11.47
2018-10-16T03:06:31.122Z,11.10
2018-10-16T03:08:59.494Z,11.43
2018-10-16T03:11:27.809Z,11.95
2018-10-16T03:13:56.087Z,11.28
2018-10-16T03:16:24.435Z,11.05
2018-10-16T03:18:52.722Z,11.48
2018-10-16T03:21:21.002Z,11.63
2018-10-16T03:23:49.280Z,11.50
2018-10-16T03:26:17.562Z,11.40
2018-10-16T03:28:45.835Z,11.40
2018-10-16T03:31:14.125Z,12.17
2018-10-16T03:33:42.415Z,12.03
2018-10-16T03:36:10.642Z,11.23
2018-10-16T03:38:39.007Z,12.00
2018-10-16T03:41:07.283Z,11.93
2018-10-16T03:43:37.311Z,12.35
2018-10-16T03:46:05.760Z,12.70
2018-10-16T03:48:34.055Z,12.47
2018-10-16T03:51:02.355Z,12.90
2018-10-16T03:53:30.648Z,12.60
2018-10-16T03:55:59.115Z,11.60
2018-10-16T03:58:27.435Z,12.05
2018-10-16T04:00:55.731Z,12.20
2018-10-16T04:03:24.011Z,12.30
2018-10-16T04:05:52.298Z,12.05
2018-10-16T04:08:20.588Z,12.28
2018-10-16T04:10:48.884Z,11.83
2018-10-16T04:13:17.171Z,12.30
2018-10-16T04:15:45.438Z,12.23
2018-10-16T04:18:13.711Z,11.93
2018-10-16T04:20:42.031Z,11.80
2018-10-16T04:23:10.303Z,11.83
2018-10-16T04:25:38.615Z,12.30
2018-10-16T04:28:06.895Z,12.03
2018-10-16T04:30:35.226Z,12.82
2018-10-16T04:33:03.507Z,11.35
2018-10-16T04:35:31.808Z,11.70
2018-10-16T04:38:00.183Z,11.85
2018-10-16T04:40:28.471Z,12.18
2018-10-16T04:42:56.742Z,11.65
2018-10-16T04:45:25.014Z,12.40
2018-10-16T04:47:53.284Z,12.45
2018-10-16T04:50:21.586Z,12.13
2018-10-16T04:52:49.935Z,12.03
2018-10-16T04:55:18.320Z,11.97
2018-10-16T04:57:46.574Z,11.73
2018-10-16T05:00:14.847Z,11.68
2018-10-16T05:02:43.170Z,12.30
2018-10-16T05:05:15.911Z,11.78
2018-10-16T05:07:44.199Z,11.68
2018-10-16T05:10:12.508Z,12.33
2018-10-16T05:12:40.814Z,11.83
2018-10-16T05:15:11.521Z,12.20
2018-10-16T05:17:39.829Z,12.18
2018-10-16T05:20:08.151Z,12.90
2018-10-16T05:22:36.446Z,13.22
2018-10-16T05:25:05.426Z,12.00
2018-10-16T05:27:33.695Z,12.70
2018-10-16T05:30:01.975Z,12.33
2018-10-16T05:32:30.271Z,13.00
2018-10-16T05:34:58.555Z,12.40
2018-10-16T05:37:26.819Z,11.85
2018-10-16T05:39:55.155Z,11.75
2018-10-16T05:42:23.451Z,12.43
2018-10-16T05:44:51.714Z,12.25
2018-10-16T05:47:19.990Z,12.78
2018-10-16T05:49:48.268Z,12.65
2018-10-16T05:52:16.581Z,12.58
2018-10-16T05:54:44.894Z,12.88
2018-10-16T05:57:13.171Z,12.50
2018-10-16T05:59:41.474Z,12.80
2018-10-16T06:02:10.067Z,12.13
2018-10-16T06:04:38.361Z,11.87
2018-10-16T06:07:06.871Z,12.10
2018-10-16T06:09:35.455Z,12.65
2018-10-16T06:12:03.725Z,11.88
2018-10-16T06:14:32.022Z,13.13
2018-10-16T06:17:00.407Z,13.25
2018-10-16T06:19:28.674Z,12.97
2018-10-16T06:21:56.931Z,12.47
2018-10-16T06:24:25.289Z,12.67
2018-10-16T06:26:53.685Z,12.70
2018-10-16T06:29:21.966Z,12.20
2018-10-16T06:31:50.272Z,13.53
2018-10-16T06:34:18.586Z,12.65
2018-10-16T06:36:46.847Z,12.98
2018-10-16T06:39:16.922Z,13.10
2018-10-16T06:41:46.224Z,12.80
2018-10-16T06:44:14.464Z,12.33
2018-10-16T06:46:42.792Z,12.85
2018-10-16T06:49:11.063Z,13.32
2018-10-16T06:51:39.392Z,13.48
2018-10-16T06:54:07.631Z,13.43
2018-10-16T06:56:35.939Z,13.10
2018-10-16T06:59:04.212Z,13.60
2018-10-16T07:01:32.491Z,13.50
2018-10-16T07:04:00.748Z,12.93
2018-10-16T07:06:29.111Z,13.27
2018-10-16T07:08:57.357Z,12.82
2018-10-16T07:11:25.615Z,13.30
2018-10-16T07:13:53.902Z,13.40
2018-10-16T07:16:22.202Z,14.78
2018-10-16T07:18:50.486Z,15.05
2018-10-16T07:21:18.816Z,14.87
2018-10-16T07:23:47.096Z,15.65
2018-10-16T07:26:15.388Z,17.17
2018-10-16T07:28:43.687Z,16.32
2018-10-16T07:31:11.947Z,15.98
2018-10-16T07:33:40.266Z,15.08
2018-10-16T07:36:08.572Z,15.73
2018-10-16T07:38:36.846Z,15.00
2018-10-16T07:41:05.144Z,14.43
2018-10-16T07:43:33.383Z,14.60
2018-10-16T07:46:01.685Z,15.90
2018-10-16T07:48:30.077Z,14.00
2018-10-16T07:50:58.252Z,14.87
2018-10-16T07:53:26.527Z,14.35
2018-10-16T07:55:54.899Z,14.60
2018-10-16T07:58:23.219Z,13.83
2018-10-16T08:00:51.507Z,14.13
2018-10-16T08:03:19.841Z,14.68
2018-10-16T08:05:48.154Z,14.07
2018-10-16T08:08:16.451Z,14.73
2018-10-16T08:10:44.755Z,13.90
2018-10-16T08:13:13.055Z,13.20
2018-10-16T08:15:41.343Z,14.85
2018-10-16T08:18:09.637Z,13.83
2018-10-16T08:20:37.916Z,14.50
2018-10-16T08:23:06.199Z,14.70
2018-10-16T08:25:34.483Z,16.40
2018-10-16T08:28:02.891Z,16.70
2018-10-16T08:30:31.160Z,16.30
2018-10-16T08:32:59.459Z,15.98
2018-10-16T08:35:27.756Z,18.98
2018-10-16T08:40:05.414Z,15.97
2018-10-16T08:43:41.512Z,16.70
2018-10-16T08:46:21.244Z,15.30
2018-10-16T08:49:01.403Z,14.58
2018-10-16T08:51:33.771Z,15.40
2018-10-16T08:54:02.080Z,16.10
2018-10-16T08:56:30.595Z,15.85
2018-10-16T08:58:58.874Z,14.95
2018-10-16T09:01:27.527Z,15.05
2018-10-16T09:03:55.811Z,14.73
2018-10-16T09:06:24.185Z,14.03
2018-10-16T09:08:52.476Z,14.43
2018-10-16T09:11:20.771Z,13.70
2018-10-16T09:13:49.119Z,14.23
2018-10-16T09:16:17.410Z,14.65
2018-10-16T09:18:45.727Z,14.33
2018-10-16T09:21:14.006Z,14.57
2018-10-16T09:23:42.267Z,14.40
2018-10-16T09:26:10.527Z,13.70
2018-10-16T09:28:38.797Z,14.23
2018-10-16T09:31:07.133Z,13.53
2018-10-16T09:33:35.439Z,14.18
2018-10-16T09:36:03.762Z,13.78
2018-10-16T09:38:32.067Z,13.88
2018-10-16T09:41:00.387Z,13.50
2018-10-16T09:43:28.671Z,13.62
2018-10-16T09:45:56.963Z,12.85
2018-10-16T09:48:25.258Z,13.10
2018-10-16T09:50:53.642Z,13.78
2018-10-16T09:53:21.930Z,11.90
2018-10-16T09:55:50.264Z,13.20
2018-10-16T09:58:18.645Z,13.00
2018-10-16T10:00:52.445Z,12.70
2018-10-16T10:03:20.647Z,12.40
2018-10-16T10:05:48.914Z,11.50
2018-10-16T10:08:17.211Z,11.20
2018-10-16T10:10:45.556Z,11.65
2018-10-16T10:13:13.855Z,11.45
2018-10-16T10:15:42.339Z,11.68
2018-10-16T10:18:10.603Z,10.30
2018-10-16T10:20:38.902Z,10.13
2018-10-16T10:23:07.278Z,10.50
2018-10-16T10:25:35.543Z,10.35
2018-10-16T10:28:03.823Z,10.25
2018-10-16T10:30:32.211Z,9.90
2018-10-16T10:33:00.546Z,9.10
2018-10-16T10:35:28.954Z,9.20
2018-10-16T10:37:57.208Z,10.10
2018-10-16T10:40:25.559Z,8.60
2018-10-16T10:42:53.858Z,9.18
2018-10-16T10:45:22.979Z,8.60
2018-10-16T10:47:51.307Z,8.95
2018-10-16T10:50:19.738Z,9.20
2018-10-16T10:52:47.895Z,8.33
2018-10-16T10:55:16.159Z,8.95
2018-10-16T10:57:44.471Z,8.28
2018-10-16T11:00:13.893Z,9.20
2018-10-16T11:02:43.479Z,8.60
2018-10-16T11:05:12.168Z,8.40
2018-10-16T11:07:40.439Z,7.78
2018-10-16T11:10:10.886Z,8.13
2018-10-16T11:12:39.166Z,7.92
2018-10-16T11:15:07.767Z,7.60
2018-10-16T11:17:36.630Z,8.88
2018-10-16T11:20:05.579Z,7.50
2018-10-16T11:22:33.843Z,11.63
2018-10-16T11:25:02.143Z,7.83
2018-10-16T11:27:30.456Z,7.20
2018-10-16T11:29:58.772Z,6.90
2018-10-16T11:32:27.047Z,8.05
2018-10-16T11:34:55.327Z,7.60
2018-10-16T11:37:23.592Z,7.40
2018-10-16T11:39:51.892Z,6.87
2018-10-16T11:42:20.172Z,7.28
2018-10-16T11:44:48.479Z,8.10
2018-10-16T11:47:16.767Z,6.62
2018-10-16T11:49:45.028Z,6.92
2018-10-16T11:52:13.378Z,6.70
2018-10-16T11:54:41.600Z,6.30
2018-10-16T11:57:09.903Z,7.43
2018-10-16T11:59:38.182Z,7.20
2018-10-16T12:02:06.531Z,6.80
2018-10-16T12:04:34.779Z,7.10
2018-10-16T12:07:03.118Z,7.60
2018-10-16T12:09:31.387Z,7.60
2018-10-16T12:11:59.684Z,7.95
2018-10-16T12:14:28.081Z,7.80
2018-10-16T12:18:00.538Z,6.62
2018-10-16T12:20:33.915Z,7.05
2018-10-16T12:23:02.162Z,7.50
2018-10-16T12:25:30.435Z,6.67
2018-10-16T12:27:58.755Z,7.30
2018-10-16T12:30:27.040Z,6.60
2018-10-16T12:32:55.372Z,6.58
2018-10-16T12:35:23.621Z,6.80
2018-10-16T12:37:51.883Z,6.80
2018-10-16T12:40:20.162Z,6.40
2018-10-16T12:42:48.473Z,6.50
2018-10-16T12:45:16.731Z,6.28
2018-10-16T12:47:45.217Z,6.20
2018-10-16T12:50:13.535Z,6.60
2018-10-16T12:52:41.769Z,6.10
2018-10-16T12:55:10.239Z,6.10
2018-10-16T12:57:38.529Z,6.50
2018-10-16T13:00:07.286Z,6.60
2018-10-16T13:02:35.520Z,6.80
2018-10-16T13:05:03.998Z,6.20
2018-10-16T13:07:36.243Z,6.03
2018-10-16T13:10:06.518Z,5.60
2018-10-16T13:12:34.815Z,6.25
2018-10-16T13:15:03.158Z,6.00
2018-10-16T13:17:31.404Z,5.50
2018-10-16T13:19:59.761Z,6.30
2018-10-16T13:22:28.047Z,5.92
2018-10-16T13:24:56.323Z,9.18
2018-10-16T13:27:24.583Z,5.87
2018-10-16T13:29:52.933Z,5.90
2018-10-16T13:32:21.187Z,5.37
2018-10-16T13:34:49.519Z,5.70
2018-10-16T13:37:17.794Z,5.75
2018-10-16T13:39:46.211Z,5.60
2018-10-16T13:42:14.481Z,5.60
2018-10-16T13:44:42.785Z,4.87
2018-10-16T13:47:11.063Z,5.50
2018-10-16T13:49:39.335Z,5.00
2018-10-16T13:52:07.634Z,5.95
2018-10-16T13:54:35.883Z,5.92
2018-10-16T13:57:04.132Z,5.90
2018-10-16T13:59:32.403Z,5.58
2018-10-16T14:02:00.719Z,5.30
2018-10-16T14:04:29.021Z,5.75
2018-10-16T14:06:57.307Z,5.30
2018-10-16T14:09:25.555Z,5.30
2018-10-16T14:11:53.851Z,5.30
2018-10-16T14:14:22.139Z,5.50
2018-10-16T14:16:50.523Z,5.33
2018-10-16T14:19:18.772Z,4.80
2018-10-16T14:21:47.060Z,5.45
2018-10-16T14:24:15.408Z,5.25
2018-10-16T14:26:43.668Z,5.33
2018-10-16T14:29:11.919Z,5.03
2018-10-16T14:31:40.179Z,5.90
2018-10-16T14:34:08.460Z,5.20
2018-10-16T14:36:36.746Z,5.33
2018-10-16T14:39:08.042Z,5.10
2018-10-16T14:41:36.315Z,5.40
2018-10-16T14:44:04.954Z,5.10
2018-10-16T14:46:33.215Z,5.67
2018-10-16T14:49:08.344Z,5.47
2018-10-16T14:51:36.618Z,5.30
2018-10-16T14:54:04.929Z,5.20
2018-10-16T14:56:33.795Z,5.10
2018-10-16T14:59:02.066Z,5.60
2018-10-16T15:01:30.458Z,5.10
2018-10-16T15:03:58.781Z,5.58
2018-10-16T15:06:27.028Z,5.20
2018-10-16T15:08:55.320Z,5.28
2018-10-16T15:11:23.603Z,5.60
2018-10-16T15:13:52.065Z,5.47
2018-10-16T15:16:20.382Z,5.65
2018-10-16T15:18:48.639Z,5.60
2018-10-16T15:21:16.923Z,5.30
2018-10-16T15:23:45.219Z,6.03
2018-10-16T15:26:13.496Z,6.10
2018-10-16T15:28:41.779Z,6.00
2018-10-16T15:31:10.146Z,5.83
2018-10-16T15:33:38.438Z,5.92
2018-10-16T15:36:06.784Z,6.40
2018-10-16T15:38:35.080Z,5.90
2018-10-16T15:41:03.486Z,5.50
2018-10-16T15:43:31.758Z,5.97
2018-10-16T15:46:00.148Z,5.75
2018-10-16T15:48:28.443Z,5.92
2018-10-16T15:50:56.792Z,5.92
2018-10-16T15:53:25.077Z,6.05
2018-10-16T15:55:53.397Z,6.20
2018-10-16T15:58:21.668Z,5.80
2018-10-16T16:00:49.947Z,5.30
2018-10-16T16:03:18.239Z,6.03
2018-10-16T16:05:46.498Z,6.85
2018-10-16T16:08:14.837Z,8.43
2018-10-16T16:10:43.052Z,8.85
2018-10-16T16:13:11.821Z,9.58
2018-10-16T16:15:40.281Z,8.35
2018-10-16T16:18:08.703Z,16.27
2018-10-16T16:20:36.970Z,11.40
2018-10-16T16:23:05.328Z,9.88
2018-10-16T16:25:34.044Z,9.60
2018-10-16T16:28:02.641Z,9.50
2018-10-16T16:30:30.988Z,9.05
2018-10-16T16:32:59.304Z,8.30
2018-10-16T16:35:27.580Z,8.20
2018-10-16T16:37:55.943Z,8.80
2018-10-16T16:40:24.207Z,7.40
2018-10-16T16:42:52.470Z,7.42
2018-10-16T16:45:20.747Z,7.90
2018-10-16T16:47:49.055Z,9.10
2018-10-16T16:50:17.334Z,7.60
2018-10-16T16:52:45.617Z,7.70
2018-10-16T16:55:15.156Z,8.40
2018-10-16T16:57:43.800Z,9.13
2018-10-16T17:00:13.466Z,9.50
2018-10-16T17:02:43.023Z,15.63
2018-10-16T17:05:11.976Z,10.48
2018-10-16T17:07:40.781Z,9.90
2018-10-16T17:10:09.538Z,8.97
2018-10-16T17:12:38.335Z,10.18
2018-10-16T17:15:08.934Z,8.90
2018-10-16T17:17:37.334Z,7.80
2018-10-16T17:20:06.537Z,8.90
2018-10-16T17:22:35.022Z,8.78
2018-10-16T17:25:03.437Z,11.90
2018-10-16T17:27:31.621Z,11.03
2018-10-16T17:30:00.147Z,11.87
2018-10-16T17:32:28.412Z,8.85
2018-10-16T17:34:56.712Z,10.18
2018-10-16T17:37:25.043Z,9.40
2018-10-16T17:39:53.347Z,9.38
2018-10-16T17:42:21.595Z,9.48
2018-10-16T17:44:49.863Z,11.63
2018-10-16T17:47:18.163Z,10.53
2018-10-16T17:49:46.442Z,11.00
2018-10-16T17:52:14.720Z,10.30
2018-10-16T17:54:42.991Z,10.60
2018-10-16T17:57:11.354Z,10.40
2018-10-16T17:59:39.631Z,10.40
2018-10-16T18:02:07.880Z,10.03
2018-10-16T18:04:36.205Z,10.37
2018-10-16T18:07:04.631Z,11.00
2018-10-16T18:09:32.935Z,13.90
2018-10-16T18:12:01.195Z,11.38
2018-10-16T18:14:31.479Z,11.27
2018-10-16T18:16:59.735Z,11.40
2018-10-16T18:19:27.991Z,11.20
2018-10-16T18:21:56.294Z,13.97
2018-10-16T18:24:24.602Z,13.77
2018-10-16T18:26:52.928Z,12.10
2018-10-16T18:29:21.159Z,12.43
2018-10-16T18:31:49.443Z,12.50
2018-10-16T18:34:17.744Z,13.17
2018-10-16T18:36:46.027Z,11.90
2018-10-16T18:39:14.388Z,13.07
2018-10-16T18:41:42.623Z,13.78
2018-10-16T18:44:10.975Z,13.80
2018-10-16T18:46:39.513Z,14.40
2018-10-16T18:49:07.787Z,15.50
2018-10-16T18:51:36.074Z,15.63
2018-10-16T18:54:04.406Z,15.60
2018-10-16T18:56:32.656Z,15.05
2018-10-16T18:59:01.079Z,14.85
2018-10-16T19:01:29.378Z,15.30
2018-10-16T19:03:57.655Z,14.75
2018-10-16T19:06:25.906Z,16.12
2018-10-16T19:08:54.224Z,15.03
2018-10-16T19:11:22.527Z,15.72
2018-10-16T19:13:50.901Z,15.90
2018-10-16T19:16:19.139Z,16.55
2018-10-16T19:18:47.619Z,15.70
2018-10-16T19:21:16.059Z,16.05
2018-10-16T19:23:44.366Z,16.07
2018-10-16T19:26:12.639Z,16.17
2018-10-16T19:28:40.896Z,15.83
2018-10-16T19:31:09.178Z,15.10
2018-10-16T19:33:37.480Z,15.00
2018-10-16T19:36:06.207Z,17.27
2018-10-16T19:38:34.492Z,16.15
2018-10-16T19:41:02.767Z,15.88
2018-10-16T19:43:31.068Z,15.15
2018-10-16T19:45:59.579Z,14.50
2018-10-16T19:48:27.884Z,14.87
2018-10-16T19:50:56.214Z,16.62
2018-10-16T19:53:24.479Z,17.37
2018-10-16T19:55:52.762Z,16.23
2018-10-16T19:58:21.031Z,15.20
2018-10-16T20:00:49.376Z,15.30
2018-10-16T20:03:17.635Z,14.53
2018-10-16T20:05:45.948Z,15.68
2018-10-16T20:08:14.295Z,16.12
2018-10-16T20:11:10.084Z,17.20
2018-10-16T20:13:39.638Z,20.05
2018-10-16T20:16:07.913Z,16.77
2018-10-16T20:18:36.203Z,14.83
2018-10-16T20:21:04.707Z,15.45
2018-10-16T20:23:32.996Z,15.35
2018-10-16T20:26:01.276Z,15.95
2018-10-16T20:28:29.577Z,16.75
2018-10-16T20:30:57.879Z,16.57
2018-10-16T20:33:26.188Z,16.20
2018-10-16T20:35:54.518Z,15.85
2018-10-16T20:38:22.829Z,15.77
2018-10-16T20:40:51.128Z,16.23
2018-10-16T20:43:19.459Z,15.50
2018-10-16T20:45:47.760Z,16.00
2018-10-16T20:48:16.027Z,16.93
2018-10-16T20:50:44.291Z,16.80
2018-10-16T20:53:12.575Z,16.70
2018-10-16T20:55:41.000Z,16.60
2018-10-16T20:58:09.339Z,17.20
2018-10-16T21:00:38.379Z,16.90
2018-10-16T21:03:06.707Z,17.20
2018-10-16T21:05:35.054Z,17.67
2018-10-16T21:08:03.311Z,17.52
2018-10-16T21:10:31.593Z,17.10
2018-10-16T21:12:59.898Z,17.45
2018-10-16T21:15:28.174Z,16.70
2018-10-16T21:17:56.446Z,17.70
2018-10-16T21:20:24.702Z,17.02
2018-10-16T21:22:53.046Z,17.32
2018-10-16T21:25:21.294Z,17.27
2018-10-16T21:27:49.570Z,18.73
2018-10-16T21:30:17.838Z,18.17
2018-10-16T21:32:46.110Z,17.52
2018-10-16T21:35:14.423Z,17.77
2018-10-16T21:37:42.777Z,18.02
2018-10-16T21:40:11.074Z,19.02
2018-10-16T21:42:39.385Z,17.75
2018-10-16T21:45:07.854Z,18.12
2018-10-16T21:47:36.330Z,17.42
2018-10-16T21:50:04.654Z,18.33
2018-10-16T21:52:32.922Z,17.10
2018-10-16T21:55:01.233Z,16.87
2018-10-16T21:57:29.434Z,17.93
2018-10-16T21:59:57.730Z,17.97
2018-10-16T22:02:31.236Z,17.87
2018-10-16T22:04:59.530Z,17.20
2018-10-16T22:07:27.850Z,17.37
2018-10-16T22:09:56.126Z,18.57
2018-10-16T22:12:24.474Z,18.62
2018-10-16T22:14:52.686Z,18.20
2018-10-16T22:17:20.982Z,17.82
2018-10-16T22:19:49.259Z,17.70
2018-10-16T22:22:17.567Z,17.48
2018-10-16T22:24:45.827Z,17.30
2018-10-16T22:27:14.090Z,18.07
2018-10-16T22:29:42.458Z,18.80
2018-10-16T22:32:10.679Z,18.92
2018-10-16T22:34:39.119Z,18.50
2018-10-16T22:37:07.380Z,18.47
2018-10-16T22:39:35.658Z,18.80
2018-10-16T22:42:03.965Z,18.70
2018-10-16T22:44:32.251Z,18.75
2018-10-16T22:47:00.587Z,18.62
2018-10-16T22:49:28.833Z,18.85
2018-10-16T22:51:57.116Z,18.42
2018-10-16T22:54:25.441Z,18.77
2018-10-16T22:56:53.734Z,18.12
2018-10-16T22:59:22.059Z,17.73
2018-10-16T23:01:50.327Z,18.02
2018-10-16T23:04:18.597Z,17.82
2018-10-16T23:06:46.881Z,18.48
2018-10-16T23:09:15.148Z,18.15
2018-10-16T23:11:43.438Z,17.43
2018-10-16T23:14:11.695Z,18.40
2018-10-16T23:16:39.966Z,19.40
2018-10-16T23:19:08.303Z,18.13
2018-10-16T23:21:36.554Z,18.33
2018-10-16T23:24:05.139Z,18.90
2018-10-16T23:26:33.463Z,18.42
2018-10-16T23:29:01.782Z,18.77
2018-10-16T23:31:30.022Z,18.60
2018-10-16T23:33:58.269Z,18.98
2018-10-16T23:36:26.538Z,17.92
2018-10-16T23:38:54.826Z,18.70
2018-10-16T23:41:23.118Z,18.63
2018-10-16T23:43:51.396Z,18.27
2018-10-16T23:46:19.662Z,18.63
2018-10-16T23:48:47.961Z,18.80
2018-10-16T23:51:16.273Z,18.40
2018-10-16T23:53:44.562Z,18.60
2018-10-16T23:56:12.886Z,17.98
2018-10-16T23:58:41.174Z,18.00
